• Join FlightAware (Why Join?)
  • Login
  • US Flag 
12:22PM EDT


 

Airport Tracker/Info


-or-


 

Live Flight TrackerFlight Track Log ✈ UAL326 ✈ 19-May-2013 ✈ KMCO - KIAD

Flight Track Log - Related Links

Times and Time Zones

All times are in EDT time to prevent confusion due to time zone crossing. See the UAL326 flight status page for this flight to view local times or setup timezone preferences in your user account.

Time Position Orientation Groundspeed Altitude Reporting Facility
EDT Latitude Longitude Course Direction KTS MPH feet Rate Location/Type
02:01PM 28.4000 -81.3000 90° East 161 185 600  Level Orlando TRACON
02:02PM 28.3500 -81.2167 124° Southeast 250 288 3,300 2,040 Climbing Orlando TRACON
02:03PM 28.4167 -81.1667 33° Northeast 289 333 6,000 2,880 Climbing Orlando TRACON
02:04PM 28.2029 -80.8489 114° Southeast  Level FlightAware Approximate
02:04PM 28.4500 -81.0833 66° East 290 334 9,100  Level Orlando TRACON
02:05PM 28.1555 -80.7305 114° Southeast  Level FlightAware Approximate
02:06PM 28.1000 -80.6307 90° East  Level FlightAware Approximate
02:07PM 28.4686 -80.8450 85° East 317 365 14,400  Level Miami Center
02:08PM 28.5025 -80.7447 69° East 322 371 16,700 1,800 Climbing Miami Center
02:09PM 28.5364 -80.6514 68° East 343 395 18,100 1,200 Climbing Miami Center
02:10PM 28.5808 -80.5467 64° Northeast 362 417 19,100 960 Climbing Miami Center
02:11PM 28.6383 -80.4161 63° Northeast 399 459 20,100 1,020 Climbing Miami Center
02:12PM 28.6894 -80.2922 65° Northeast 422 486 21,200 1,200 Climbing Miami Center
02:13PM 28.7447 -80.1639 64° Northeast 440 506 22,500 1,140 Climbing Miami Center
02:14PM 28.8183 -80.0453 55° Northeast 445 512 23,500 1,020 Climbing Miami Center
02:15PM 28.9142 -79.9556 39° Northeast 445 512 24,600 960 Climbing Miami Center
02:16PM 29.0142 -79.8611 40° Northeast 445 512 25,500 1,020 Climbing Miami Center
02:17PM 29.1164 -79.7664 39° Northeast 461 531 26,700 1,020 Climbing Miami Center
02:18PM 29.2164 -79.6667 41° Northeast 467 537 27,600 1,140 Climbing Miami Center
02:19PM 29.3225 -79.5719 38° Northeast 472 543 29,000 1,320 Climbing Miami Center
02:20PM 29.4222 -79.4792 39° Northeast 472 543 30,300 1,200 Climbing Miami Center
02:21PM 29.5239 -79.3861 39° Northeast 472 543 31,400 960 Climbing Miami Center
02:22PM 29.6217 -79.2906 40° Northeast 466 536 32,300 780 Climbing Miami Center
02:23PM 29.7939 -79.2119 22° Northeast 447 514 33,500 900 Climbing Jacksonville Center
02:24PM 29.9181 -79.1783 13° North 447 514 34,700 720 Climbing Jacksonville Center
02:25PM 30.0381 -79.1450 14° North 434 499 35,000 120 Climbing Jacksonville Center
02:26PM 30.1581 -79.1092 14° North 434 499 35,000  Level Jacksonville Center
02:27PM 30.2806 -79.0778 12° North 434 499 35,000  Level Jacksonville Center
02:28PM 30.3983 -79.0419 15° North 434 499 35,000  Level Jacksonville Center
02:29PM 30.5206 -79.0081 13° North 442 509 35,000  Level Jacksonville Center
02:30PM 30.6403 -78.9717 15° North 448 516 35,000  Level Jacksonville Center
02:31PM 30.7667 -78.9375 13° North 448 516 35,000  Level Jacksonville Center
02:32PM 30.8867 -78.9033 14° North 448 516 35,000  Level Jacksonville Center
02:33PM 31.0108 -78.8692 13° North 448 516 35,000 -60 Level Jacksonville Center
02:34PM 31.1269 -78.8400 12° North 441 507 34,900  Descending Jacksonville Center
02:35PM 31.2508 -78.7981 16° North 446 513 35,000 420 Climbing Jacksonville Center
02:36PM 31.3708 -78.7661 13° North 446 513 35,800 840 Climbing Jacksonville Center
02:37PM 31.4908 -78.7317 14° North 451 519 36,700 540 Climbing Jacksonville Center
02:38PM 31.6067 -78.6994 13° North 438 504 36,900 120 Climbing Jacksonville Center
02:39PM 31.7181 -78.6653 15° North 428 493 37,000  Climbing Jacksonville Center
02:40PM 31.8339 -78.6331 13° North 428 493 36,900 -60 Descending Jacksonville Center
02:41PM 31.9456 -78.5986 15° North 423 487 36,900  Level Jacksonville Center
02:42PM 32.0614 -78.5661 13° North 418 481 37,000  Climbing Jacksonville Center
02:43PM 32.1750 -78.5314 15° North 413 475 37,000  Level Jacksonville Center
02:44PM 32.2886 -78.4964 15° North 413 475 37,000  Level Jacksonville Center
02:45PM 32.3958 -78.4642 14° North 407 468 37,000  Level Jacksonville Center
02:46PM 32.5094 -78.4292 15° North 413 475 37,000 -60 Level Jacksonville Center
02:47PM 32.6211 -78.3939 15° North 413 475 36,900  Descending Jacksonville Center
02:48PM 32.7347 -78.3636 13° North 413 475 37,000  Climbing Jacksonville Center
02:49PM 32.8481 -78.3283 15° North 413 475 37,000  Level Jacksonville Center
02:50PM 32.9617 -78.2953 14° North 413 475 37,000 -60 Level Jacksonville Center
02:51PM 33.0772 -78.2597 14° North 413 475 36,900 -60 Descending Jacksonville Center
02:52PM 33.1950 -78.2261 13° North 418 481 36,900  Level Jacksonville Center
02:53PM 33.3106 -78.1903 15° North 424 488 37,000  Climbing Jacksonville Center
02:55PM 33.5003 -78.1342 14° North 430 495 37,000  Level Washington Center
02:56PM 33.6197 -78.1003 13° North 435 501 37,000  Level Washington Center
02:57PM 33.7394 -78.0642 14° North 435 501 37,000  Level Washington Center
02:58PM 33.8569 -78.0300 14° North 435 501 37,000  Level Washington Center
02:59PM 33.9936 -77.9814 16° North 441 507 37,000  Level Washington Center
03:00PM 34.1169 -77.9750 North 441 507 37,000  Level Washington Center
03:01PM 34.2378 -77.9758 360° North 435 501 37,000 -60 Level Washington Center
03:02PM 34.3650 -77.9772 359° North 441 507 36,900  Descending Washington Center
03:03PM 34.4861 -77.9781 360° North 441 507 37,000  Climbing Washington Center
03:04PM 34.6094 -77.9642 North 436 502 37,000 -60 Level Washington Center
03:05PM 34.7308 -77.9422 North 441 507 36,900  Descending Washington Center
03:06PM 34.8464 -77.9000 17° North 441 507 37,000  Climbing Washington Center
03:07PM 34.9619 -77.8603 16° North 435 501 37,000  Level Washington Center
03:08PM 35.0817 -77.8128 18° North 440 506 37,000 -240 Level Washington Center
03:09PM 35.1975 -77.7653 19° North 440 506 36,600 -540 Descending Washington Center
03:10PM 35.3172 -77.7225 16° North 440 506 36,000 -600 Descending Washington Center
03:11PM 35.4450 -77.6853 13° North 445 512 35,500 -840 Descending Washington Center
03:12PM 35.5644 -77.6525 13° North 451 519 34,400 -780 Descending Washington Center
03:13PM 35.6903 -77.6253 10° North 451 519 34,000 -240 Descending Washington Center
03:14PM 35.8031 -77.6228 North 457 526 34,000  Level Washington Center
03:15PM 35.9300 -77.6364 355° North 452 520 34,000  Level Washington Center
03:16PM 36.0550 -77.6525 354° North 452 520 34,000 -1,500 Level Washington Center
03:17PM 36.1839 -77.6689 354° North 452 520 31,000 -3,720 Descending Washington Center
03:18PM 36.3131 -77.6825 355° North 463 533 26,700 -2,580 Descending Washington Center
03:19PM 36.4400 -77.6989 354° North 463 533 26,000 -360 Descending Washington Center
03:20PM 36.5692 -77.7125 355° North 463 533 26,000  Level Washington Center
03:21PM 36.7003 -77.7292 354° North 468 539 26,000  Level Washington Center
03:22PM 36.8314 -77.7458 354° North 468 539 26,000 -420 Level Washington Center
03:23PM 36.9586 -77.7597 355° North 462 532 25,200 -660 Descending Washington Center
03:24PM 37.0689 -77.7706 356° North 433 498 24,800 -1,020 Descending Washington Center
03:25PM 37.1708 -77.7839 354° North 395 455 23,200 -1,440 Descending Washington Center
03:26PM 37.2708 -77.7972 354° North 369 425 22,000 -600 Descending Washington Center
03:27PM 37.3686 -77.8078 355° North 355 409 22,000  Level Washington Center
03:28PM 37.4683 -77.8211 354° North 355 409 22,000 -60 Level Washington Center
03:29PM 37.5647 -77.8056 North 350 403 21,900 -780 Descending Washington Center
03:30PM 37.6553 -77.7533 25° Northeast 347 399 20,500 -1,560 Descending Washington Center
03:31PM 37.7458 -77.7033 24° Northeast 347 399 18,800 -1,680 Descending Washington Center
03:32PM 37.8322 -77.6506 26° Northeast 347 399 17,200 -1,680 Descending Washington Center
03:33PM 37.9167 -77.6000 25° Northeast 334 384 15,500 -2,100 Descending Washington Center
03:34PM 37.9967 -77.5522 25° Northeast 323 372 13,100 -2,460 Descending Washington Center
03:35PM 38.0828 -77.5069 22° Northeast 305 351 10,700 -1,560 Descending Washington Center
03:36PM 38.1608 -77.4614 25° Northeast 305 351 10,000 -360 Descending Washington Center
03:37PM 38.2367 -77.4131 27° Northeast 299 344 10,000 -720 Level Washington Center
03:38PM 38.3144 -77.3700 23° Northeast 299 344 8,600 -1,320 Descending Washington Center
03:39PM 38.3939 -77.3586 North 293 337 7,400 -1,140 Descending Washington Center
03:40PM 38.4750 -77.3633 357° North 287 330 6,400 -1,020 Descending Washington Center
03:41PM 38.5564 -77.3653 359° North 287 330 5,400 -840 Descending Washington Center
03:42PM 38.6375 -77.3672 359° North 287 330 4,800 -600 Descending Washington Center
03:42PM 38.6667 -77.3667 North 289 333 4,600 -540 Descending Potomac TRACON
03:43PM 38.7500 -77.3500 North 286 329 4,100 -300 Descending Potomac TRACON
03:44PM 38.8333 -77.3500 360° North 281 323 4,000 -60 Descending Potomac TRACON
03:45PM 38.9167 -77.3500 360° North 279 321 4,000  Level Potomac TRACON
03:46PM 38.9833 -77.3500 360° North 242 278 4,000  Level Potomac TRACON
03:47PM 39.0500 -77.3500 360° North 240 276 4,000  Level Potomac TRACON
03:48PM 39.1167 -77.3500 360° North 240 276 4,000 -360 Level Potomac TRACON
03:49PM 39.1833 -77.3500 360° North 231 266 3,300 -540 Descending Potomac TRACON
03:50PM 39.2333 -77.3667 346° North 244 281 3,000 -420 Descending Potomac TRACON
03:51PM 39.2167 -77.4333 252° West 216 249 2,500 -300 Descending Potomac TRACON
03:52PM 39.1500 -77.4333 180° South 195 224 2,500  Level Potomac TRACON